^^
MeteoGriva-Weather Station Historical Data
Daily Summary for August 31, 2020 Units:  English    Metric   Both
Daily Weekly Monthly Yearly Custom
  High: Low: Average:
Temperature: 53.8 °F 38.1 °F 45.1 °F
Dew Point: 39.2 °F 24.6 °F 33.1 °F
Humidity: 73% 54% 63%
Wind Speed: 2.2mph 0mph 0.1mph
Wind Gust: 10.1mph - -
Wind- - SSE
Pressure: 30.1 in 29.9 in -
Precipitation: 0 in    
Historical Graphs
 
 
Tabular Data for August 31, 2020
Time Temperature Dew Point Pressure Wind Wind Speed Wind Gust Humidity Rainfall Rate (Hourly) solar
00:04 39.6 °F 24.8 °F 30.1 in Calm   2.5 mph 55% 0 in 0 W/m2
00:09 39.6 °F 24.6 °F 30.1 in SW 0.2 mph 2.5 mph 54.8% 0 in 0 W/m2
00:14 39.6 °F 24.6 °F 30.1 in WSW 0.1 mph 2.5 mph 54.7% 0 in 0 W/m2
00:19 39.9 °F 25.2 °F 30.1 in SSW 0.7 mph 4.9 mph 55% 0 in 0 W/m2
00:24 40.6 °F 25.7 °F 30.1 in WSW 0.1 mph 2.5 mph 55% 0 in 0 W/m2
00:29 40.6 °F 25.3 °F 30.1 in Calm   2.5 mph 54% 0 in 0 W/m2
00:34 40.6 °F 25.5 °F 30.1 in SSW 0.4 mph 4.9 mph 54.3% 0 in 0 W/m2
00:39 40.6 °F 25.7 °F 30.1 in SSW 1.9 mph 4.9 mph 55% 0 in 0 W/m2
00:44 40.8 °F 26.1 °F 30.1 in SSW 1.7 mph 4.9 mph 55.4% 0 in 0 W/m2
00:49 40.6 °F 26.4 °F 30.1 in SSW 1.7 mph 7.6 mph 56.2% 0 in 0 W/m2
00:54 40.6 °F 26.6 °F 30.1 in South 1.1 mph 7.6 mph 56.8% 0 in 0 W/m2
00:59 40.3 °F 27.1 °F 30.1 in South 1.3 mph 4.9 mph 58.9% 0 in 0 W/m2
01:04 39.6 °F 26.8 °F 30.1 in SSW 0.5 mph 4.9 mph 60% 0 in 0 W/m2
01:09 39.6 °F 27.1 °F 30.1 in SSW 1.6 mph 4.9 mph 61% 0 in 0 W/m2
01:14 39.6 °F 27.5 °F 30.1 in SSW 0.1 mph 4.9 mph 61.6% 0 in 0 W/m2
01:19 39.4 °F 27.5 °F 30.1 in Calm   2.5 mph 62% 0 in 0 W/m2
01:24 38.3 °F 26.8 °F 30.1 in SSW 0.2 mph 2.5 mph 63% 0 in 0 W/m2
01:29 38.3 °F 27 °F 30.1 in SSW 0.1 mph 2.5 mph 63.4% 0 in 0 W/m2
01:34 38.5 °F 26.6 °F 30.1 in Calm   2.5 mph 62.1% 0 in 0 W/m2
01:39 38.5 °F 26.8 °F 30.1 in Calm   2.5 mph 62.6% 0 in 0 W/m2
01:44 38.7 °F 26.8 °F 30.1 in Calm     62.2% 0 in 0 W/m2
01:49 38.7 °F 27 °F 30.1 in SSW 0.4 mph 2.5 mph 62.7% 0 in 0 W/m2
01:54 38.7 °F 27.1 °F 30.1 in SSW 0.8 mph 4.9 mph 63% 0 in 0 W/m2
01:59 38.8 °F 27.3 °F 30.1 in Calm   2.5 mph 63% 0 in 0 W/m2
02:04 38.7 °F 27.5 °F 30.1 in SSW 0.7 mph 4.9 mph 63.7% 0 in 0 W/m2
02:09 38.7 °F 28 °F 30.1 in South 2.2 mph 7.6 mph 65.7% 0 in 0 W/m2
02:14 38.7 °F 28.6 °F 30.1 in SSW 1.1 mph 4.9 mph 66.8% 0 in 0 W/m2
02:19 38.7 °F 28.6 °F 30.1 in Calm   2.5 mph 67% 0 in 0 W/m2
02:24 38.5 °F 28.8 °F 30.1 in Calm     68% 0 in 0 W/m2
02:29 38.5 °F 28.8 °F 30.1 in Calm     68% 0 in 0 W/m2
02:34 38.5 °F 28.8 °F 30.1 in Calm     68% 0 in 0 W/m2
02:39 38.5 °F 28.8 °F 30.1 in Calm     68% 0 in 0 W/m2
02:44 38.7 °F 29.7 °F 30.1 in Calm   2.5 mph 70.1% 0 in 0 W/m2
02:49 38.5 °F 29.8 °F 30.1 in Calm     71.3% 0 in 0 W/m2
02:54 38.5 °F 30 °F 30.1 in Calm     71.7% 0 in 0 W/m2
02:59 38.5 °F 29.8 °F 30.1 in Calm     71% 0 in 0 W/m2
03:04 38.5 °F 30 °F 30.1 in Calm     71.6% 0 in 0 W/m2
03:09 38.5 °F 30 °F 30.1 in Calm     71.6% 0 in 0 W/m2
03:14 38.5 °F 29.8 °F 30.1 in Calm     71.2% 0 in 0 W/m2
03:19 38.5 °F 30 °F 30.1 in Calm     71.6% 0 in 0 W/m2
03:24 38.3 °F 29.3 °F 30.1 in Calm     70.1% 0 in 0 W/m2
03:29 38.3 °F 28.9 °F 30.1 in Calm     68.7% 0 in 0 W/m2
03:34 38.3 °F 29.1 °F 30.1 in Calm     69.4% 0 in 0 W/m2
03:39 38.5 °F 29.7 °F 30.1 in Calm     70.6% 0 in 0 W/m2
03:44 38.7 °F 29.7 °F 30.1 in Calm     70.1% 0 in 0 W/m2
03:49 38.7 °F 30 °F 30.1 in Calm     70.8% 0 in 0 W/m2
03:54 38.7 °F 29.8 °F 30.1 in Calm     70.6% 0 in 0 W/m2
03:59 38.7 °F 29.7 °F 30.1 in Calm     70% 0 in 0 W/m2
04:04 39.4 °F 30.4 °F 30.1 in Calm     69.9% 0 in 0 W/m2
04:09 39.6 °F 30.4 °F 30.1 in Calm     69.9% 0 in 0 W/m2
04:14 39.6 °F 30.6 °F 30.1 in Calm     70% 0 in 0 W/m2
04:19 39.4 °F 30.4 °F 30.1 in Calm     69.8% 0 in 0 W/m2
04:24 39.6 °F 30 °F 30.1 in Calm     69% 0 in 0 W/m2
04:29 39.4 °F 30.4 °F 30.1 in Calm     69.9% 0 in 0 W/m2
04:34 39.4 °F 30.7 °F 30.1 in Calm     71% 0 in 0 W/m2
04:39 39.2 °F 30.9 °F 30.1 in Calm     72% 0 in 0 W/m2
04:44 38.8 °F 30.2 °F 30.1 in Calm     70.9% 0 in 0 W/m2
04:49 38.7 °F 30 °F 30.1 in Calm     70.9% 0 in 0 W/m2
04:54 38.7 °F 30.4 °F 30.1 in Calm     72.3% 0 in 0 W/m2
04:59 38.5 °F 30.2 °F 30.1 in Calm     72% 0 in 0 W/m2
05:04 38.3 °F 30 °F 30.1 in Calm     72% 0 in 0 W/m2
05:09 38.3 °F 30 °F 30.1 in Calm     72% 0 in 0 W/m2
05:14 38.3 °F 30.2 °F 30.1 in Calm     72.3% 0 in 0 W/m2
05:19 38.1 °F 30.2 °F 30.1 in Calm     73% 0 in 0 W/m2
05:24 38.1 °F 30 °F 30.1 in Calm     72.7% 0 in 0 W/m2
05:29 38.1 °F 30 °F 30.1 in Calm     72.7% 0 in 0 W/m2
05:34 38.1 °F 30 °F 30.1 in Calm     72.4% 0 in 0 W/m2
05:39 38.1 °F 30.2 °F 30.1 in Calm     73% 0 in 0 W/m2
05:44 38.5 °F 30.4 °F 30.1 in Calm     72.2% 0 in 0 W/m2
05:49 38.7 °F 30.4 °F 30.1 in Calm     72% 0 in 0 W/m2
05:54 38.7 °F 30.4 °F 30.1 in Calm     72% 0 in 0 W/m2
05:59 38.7 °F 30.4 °F 30.1 in Calm     72% 0 in 0 W/m2
06:04 38.7 °F 30.4 °F 30.1 in Calm     72% 0 in 0 W/m2
06:09 38.7 °F 30 °F 30.1 in Calm     71.2% 0 in 0 W/m2
06:14 38.7 °F 30.4 °F 30.1 in Calm     72.3% 0 in 0 W/m2
06:19 38.5 °F 30.2 °F 30.1 in Calm     72% 0 in 0 W/m2
06:24 38.7 °F 30.4 °F 30.1 in Calm     71.7% 0 in 0 W/m2
06:29 38.8 °F 30.2 °F 30.1 in Calm     71.1% 0 in 0 W/m2
06:34 38.8 °F 30.4 °F 30.1 in Calm     71.3% 0 in 0 W/m2
06:39 38.8 °F 30.4 °F 30.1 in Calm     71.6% 0 in 0 W/m2
06:44 38.8 °F 30.2 °F 30.1 in Calm     71% 0 in 0 W/m2
06:49 38.8 °F 30.2 °F 30.1 in Calm     71% 0 in 0 W/m2
06:54 38.8 °F 30.2 °F 30.1 in Calm     71% 0 in 0 W/m2
06:59 38.8 °F 30.2 °F 30.1 in Calm     71% 0 in 0 W/m2
07:04 38.7 °F 30 °F 30.1 in Calm     71% 0 in 0 W/m2
07:09 38.7 °F 30.2 °F 30.1 in Calm     71.4% 0 in 0 W/m2
07:14 38.7 °F 30.2 °F 30.1 in Calm     71.8% 0 in 0 W/m2
07:19 38.7 °F 30 °F 30.1 in Calm     71.2% 0 in 0 W/m2
07:24 38.5 °F 30 °F 30.1 in Calm     72% 0 in 0 W/m2
07:29 38.3 °F 30.2 °F 30.1 in Calm     72.3% 0 in 0 W/m2
07:34 38.3 °F 30.2 °F 30.1 in Calm     72.3% 0 in 0 W/m2
07:39 38.3 °F 30 °F 30.1 in Calm     72% 0 in 0 W/m2
07:44 38.1 °F 29.7 °F 30.1 in Calm     71.3% 0 in 2 W/m2
07:49 38.1 °F 29.7 °F 30.1 in Calm     71.4% 0 in 5 W/m2
07:54 38.3 °F 29.5 °F 30.1 in Calm     70.7% 0 in 10 W/m2
07:59 38.5 °F 29.1 °F 30.1 in Calm     69.3% 0 in 17 W/m2
08:04 39.2 °F 29.3 °F 30.1 in Calm     67.3% 0 in 22 W/m2
08:09 40.5 °F 29.8 °F 30.1 in Calm     65.3% 0 in 27 W/m2
08:14 40.6 °F 29.8 °F 30.1 in Calm     64.7% 0 in 32 W/m2
08:19 41 °F 29.8 °F 30.1 in Calm     64% 0 in 37 W/m2
08:24 43 °F 30.9 °F 30.1 in Calm     62.4% 0 in 42 W/m2
08:29 45 °F 32.5 °F 30.1 in Calm     61.8% 0 in 46 W/m2
08:34 44.6 °F 33.1 °F 30.1 in Calm     63.9% 0 in 50 W/m2
08:39 44.4 °F 32.5 °F 30.1 in Calm     62.9% 0 in 54 W/m2
08:44 43.7 °F 32.2 °F 30.1 in Calm     63.5% 0 in 58 W/m2
08:49 42.8 °F 31.1 °F 30.1 in Calm     62.9% 0 in 61 W/m2
08:54 43.3 °F 31.3 °F 30.1 in Calm     62% 0 in 64 W/m2
08:59 43.7 °F 31.1 °F 30.1 in Calm     60.6% 0 in 67 W/m2
09:04 45.5 °F 31.8 °F 30.1 in Calm     59% 0 in 69 W/m2
09:09 47.5 °F 33.4 °F 30.1 in Calm     58% 0 in 72 W/m2
09:14 47.7 °F 33.6 °F 30.1 in Calm     57.8% 0 in 74 W/m2
09:19 47.5 °F 34.9 °F 30.1 in Calm     61.3% 0 in 75 W/m2
09:24 46.9 °F 34.2 °F 30.1 in Calm     61% 0 in 77 W/m2
09:29 46.2 °F 32 °F 30.1 in Calm     57.3% 0 in 79 W/m2
09:34 46.8 °F 31.8 °F 30.1 in Calm     55.6% 0 in 80 W/m2
09:39 46.9 °F 33.4 °F 30.1 in Calm     59.3% 0 in 80 W/m2
09:44 47.1 °F 33.1 °F 30.1 in Calm     57.9% 0 in 81 W/m2
09:49 47.8 °F 32.9 °F 30.1 in Calm     56.1% 0 in 82 W/m2
09:54 47.7 °F 32.9 °F 30.1 in Calm     56.3% 0 in 82 W/m2
09:59 47.5 °F 33.3 °F 30.1 in Calm     57.7% 0 in 83 W/m2
10:04 46.8 °F 32.9 °F 30.1 in Calm     58.7% 0 in 83 W/m2
10:09 45.5 °F 31.8 °F 30.1 in Calm     58.3% 0 in 84 W/m2
10:14 46 °F 31.8 °F 30.1 in SE 0.8 mph 4.9 mph 57.8% 0 in 84 W/m2
10:19 46.8 °F 31.8 °F 30.1 in Calm     56.1% 0 in 85 W/m2
10:24 47.8 °F 32.9 °F 30.1 in East 0.4 mph 4.9 mph 55.8% 0 in 85 W/m2
10:29 49.6 °F 35.6 °F 30.1 in ESE 0.4 mph 4.9 mph 58.3% 0 in 86 W/m2
10:34 49.1 °F 35.8 °F 30.1 in Calm   2.5 mph 60% 0 in 88 W/m2
10:39 48.6 °F 35.2 °F 30.1 in East 0.7 mph 4.9 mph 60% 0 in 90 W/m2
10:44 48.2 °F 34.7 °F 30.1 in SE 0.5 mph 4.9 mph 59.3% 0 in 92 W/m2
10:49 48.2 °F 34.3 °F 30.1 in East 0.3 mph 4.9 mph 58.6% 0 in 95 W/m2
10:54 48.2 °F 34.3 °F 30.1 in SSE 0.5 mph 4.9 mph 58.7% 0 in 97 W/m2
10:59 48.2 °F 34.3 °F 30.1 in Calm   2.5 mph 58.2% 0 in 101 W/m2
11:04 48.7 °F 34.3 °F 30.1 in SSW 0.1 mph 2.5 mph 57.4% 0 in 105 W/m2
11:09 49.3 °F 35.2 °F 30.1 in SE 0.2 mph 4.9 mph 58.3% 0 in 108 W/m2
11:14 49.3 °F 35.2 °F 30.1 in SSE 0.6 mph 7.6 mph 58.4% 0 in 112 W/m2
11:19 49.5 °F 35.1 °F 30.1 in Calm   4.9 mph 57.3% 0 in 116 W/m2
11:24 49.5 °F 35.8 °F 30.1 in SE 0.9 mph 7.6 mph 58.7% 0 in 120 W/m2
11:29 48.9 °F 36 °F 30.1 in SSE 0.5 mph 4.9 mph 60.8% 0 in 123 W/m2
11:34 48.9 °F 36.5 °F 30.1 in ENE 1 mph 4.9 mph 62.3% 0 in 128 W/m2
11:39 48.6 °F 36.9 °F 30.1 in SSE 0.6 mph 4.9 mph 63.9% 0 in 132 W/m2
11:44 48.6 °F 36 °F 30.1 in Calm   4.9 mph 61.4% 0 in 139 W/m2
11:49 50 °F 36.7 °F 30.1 in SSE 0.6 mph 4.9 mph 59.8% 0 in 146 W/m2
11:54 50 °F 36.9 °F 30.1 in SSE 1.4 mph 4.9 mph 60.6% 0 in 147 W/m2
11:59 49.8 °F 37.8 °F 30.1 in SE 0.4 mph 4.9 mph 63% 0 in 141 W/m2
12:04 49.5 °F 37.2 °F 30.1 in East 0.4 mph 4.9 mph 62.6% 0 in 123 W/m2
12:09 48.6 °F 36.3 °F 30.1 in East 0.7 mph 4.9 mph 62.6% 0 in 100 W/m2
12:14 48.4 °F 36.7 °F 30.1 in East 0.2 mph 4.9 mph 63.8% 0 in 94 W/m2
12:19 48.2 °F 36.5 °F 30.1 in Calm   2.5 mph 63.8% 0 in 144 W/m2
12:24 48 °F 35.6 °F 30.1 in Calm   2.5 mph 61.7% 0 in 192 W/m2
12:29 49.6 °F 36.5 °F 30.1 in North 0.2 mph 4.9 mph 60.6% 0 in 199 W/m2
12:34 49.5 °F 36.5 °F 30 in SE 0.9 mph 7.6 mph 60.8% 0 in 209 W/m2
12:39 49.5 °F 36.3 °F 30 in ESE 0.6 mph 4.9 mph 60.4% 0 in 220 W/m2
12:44 49.5 °F 36.3 °F 30 in ESE 0.2 mph 2.5 mph 60.6% 0 in 227 W/m2
12:49 49.5 °F 36.1 °F 30 in South 1 mph 4.9 mph 60.2% 0 in 248 W/m2
12:54 49.6 °F 36 °F 30 in SSE 1 mph 7.6 mph 59.3% 0 in 261 W/m2
12:59 49.6 °F 36.1 °F 30 in ESE 0.5 mph 4.9 mph 59.2% 0 in 275 W/m2
13:04 50 °F 36.1 °F 30 in SSE 0.7 mph 4.9 mph 58.8% 0 in 286 W/m2
13:09 50.7 °F 36.9 °F 30 in ESE 0.4 mph 4.9 mph 58.8% 0 in 305 W/m2
13:14 50.9 °F 36.9 °F 30 in SE 1.6 mph 10.1 mph 58.8% 0 in 309 W/m2
13:19 50.7 °F 37 °F 30 in SE 0.4 mph 7.6 mph 59.2% 0 in 319 W/m2
13:24 50.7 °F 37 °F 30 in South 0.6 mph 4.9 mph 59.4% 0 in 337 W/m2
13:29 51.6 °F 37.6 °F 30 in SSE 0.4 mph 4.9 mph 58.4% 0 in 341 W/m2
13:34 51.6 °F 37.8 °F 30 in East 0.1 mph 4.9 mph 58.7% 0 in 338 W/m2
13:39 51.6 °F 37.6 °F 30 in SSW 0.2 mph 2.5 mph 58.3% 0 in 334 W/m2
13:44 51.6 °F 37.6 °F 30 in SSE 0.6 mph 4.9 mph 58.3% 0 in 336 W/m2
13:49 52 °F 37.6 °F 30 in South 0.1 mph 4.9 mph 58% 0 in 339 W/m2
13:54 52 °F 37.6 °F 30 in ESE 0.1 mph 2.5 mph 58% 0 in 340 W/m2
13:59 52 °F 37.6 °F 30 in ESE 0.2 mph 2.5 mph 58% 0 in 338 W/m2
14:04 52 °F 37.8 °F 30 in SE 0.9 mph 4.9 mph 58.4% 0 in 340 W/m2
14:09 52 °F 37.8 °F 30 in South 0.1 mph 4.9 mph 58.4% 0 in 342 W/m2
14:14 52 °F 37.8 °F 30 in SE 0.7 mph 4.9 mph 58.2% 0 in 342 W/m2
14:19 52 °F 37.9 °F 30 in South 0.6 mph 4.9 mph 58.7% 0 in 340 W/m2
14:24 52 °F 37.8 °F 30 in Calm   4.9 mph 58.3% 0 in 339 W/m2
14:29 52.5 °F 37.9 °F 30 in Calm     57.6% 0 in 340 W/m2
14:34 52.7 °F 38.1 °F 30 in ESE 0.2 mph 4.9 mph 57.3% 0 in 343 W/m2
14:39 52.7 °F 38.1 °F 30 in SE 0.5 mph 4.9 mph 57.6% 0 in 341 W/m2
14:43 52.9 °F 38.1 °F 30 in South 0.4 mph 2.5 mph 57% 0 in 338 W/m2
14:48 53.2 °F 38.3 °F 30 in Calm   2.5 mph 56.8% 0 in 335 W/m2
14:54 53.6 °F 37.9 °F 30 in East 0.2 mph 2.5 mph 55.6% 0 in 334 W/m2
14:59 53.6 °F 38.7 °F 30 in ESE 0.2 mph 4.9 mph 56.8% 0 in 330 W/m2
15:04 53.8 °F 38.7 °F 30 in South 0.6 mph 4.9 mph 56.5% 0 in 326 W/m2
15:09 53.2 °F 38.5 °F 30 in SSE 0.1 mph 4.9 mph 57% 0 in 323 W/m2
15:14 53.1 °F 38.8 °F 30 in Calm     58.6% 0 in 280 W/m2
15:19 52.9 °F 38.3 °F 30 in Calm   2.5 mph 57.5% 0 in 303 W/m2
15:24 52.7 °F 38.5 °F 30 in East 0.1 mph 2.5 mph 58.3% 0 in 304 W/m2
15:29 53.2 °F 38.5 °F 30 in ENE 0.1 mph 2.5 mph 57.3% 0 in 300 W/m2
15:34 53.2 °F 38.8 °F 30 in Calm   2.5 mph 58% 0 in 293 W/m2
15:39 53.2 °F 38.8 °F 30 in NE 0.1 mph 2.5 mph 58% 0 in 290 W/m2
15:44 52.9 °F 38.8 °F 30 in South 0.1 mph 2.5 mph 58.7% 0 in 285 W/m2
15:49 53.4 °F 38.7 °F 30 in Calm     57.2% 0 in 279 W/m2
15:54 53.6 °F 38.5 °F 30 in South 0.2 mph 2.5 mph 56.3% 0 in 275 W/m2
15:59 53.8 °F 38.7 °F 30 in Calm     56.4% 0 in 269 W/m2
16:04 53.8 °F 38.7 °F 30 in SSE 0.3 mph 4.9 mph 56.3% 0 in 262 W/m2
16:09 53.4 °F 38.5 °F 29.9 in Calm     56.8% 0 in 233 W/m2
16:14 53.2 °F 38.8 °F 29.9 in Calm     58.3% 0 in 47 W/m2
16:19 52.9 °F 39.2 °F 29.9 in Calm     59.8% 0 in 44 W/m2
16:24 52.3 °F 39.2 °F 29.9 in Calm   2.5 mph 60.8% 0 in 43 W/m2
16:29 50.5 °F 38.1 °F 29.9 in Calm     62% 0 in 40 W/m2
16:34 49.8 °F 37.6 °F 29.9 in Calm     62.3% 0 in 39 W/m2
16:39 49.6 °F 37.8 °F 29.9 in Calm     63% 0 in 35 W/m2
16:44 49.5 °F 37.8 °F 29.9 in Calm     63.9% 0 in 32 W/m2
16:49 48.4 °F 37.2 °F 29.9 in Calm     65% 0 in 30 W/m2
16:54 47.8 °F 36.9 °F 29.9 in Calm     65.5% 0 in 29 W/m2
16:59 47.8 °F 37 °F 29.9 in Calm     66.3% 0 in 27 W/m2
17:04 47.7 °F 36.9 °F 29.9 in Calm     66% 0 in 25 W/m2
17:09 47.1 °F 36.7 °F 29.9 in Calm     67.1% 0 in 23 W/m2
17:14 46.8 °F 36.7 °F 29.9 in Calm     68% 0 in 21 W/m2
17:19 46.8 °F 37.2 °F 29.9 in Calm   2.5 mph 68.9% 0 in 19 W/m2
17:24 46.6 °F 37 °F 29.9 in Calm     69% 0 in 17 W/m2
17:29 46.2 °F 36.7 °F 29.9 in Calm     69% 0 in 13 W/m2
17:34 45.9 °F 36.3 °F 29.9 in Calm     69% 0 in 10 W/m2
17:39 45.9 °F 36.3 °F 29.9 in Calm     69% 0 in 7 W/m2
17:44 45.9 °F 36.3 °F 29.9 in Calm     69% 0 in 4 W/m2
17:49 45.9 °F 36.3 °F 29.9 in Calm     69.3% 0 in 0 W/m2
17:54 45.9 °F 36.1 °F 29.9 in Calm     68.2% 0 in 0 W/m2
17:59 45.9 °F 36.3 °F 29.9 in Calm     68.9% 0 in 0 W/m2
18:04 45.9 °F 36.1 °F 29.9 in Calm     68.6% 0 in 0 W/m2
18:09 45.9 °F 36 °F 29.9 in Calm     67.9% 0 in 0 W/m2
18:14 46 °F 34.9 °F 29.9 in Calm     65.1% 0 in 0 W/m2
18:19 46.2 °F 34.7 °F 29.9 in Calm     63.7% 0 in 0 W/m2
18:24 46.4 °F 34.5 °F 29.9 in Calm   2.5 mph 62.9% 0 in 0 W/m2
18:29 47.1 °F 34.2 °F 29.9 in Calm     60.8% 0 in 0 W/m2
18:34 47.7 °F 34.5 °F 29.9 in Calm   2.5 mph 60% 0 in 0 W/m2
18:39 47.7 °F 34 °F 29.9 in Calm     59% 0 in 0 W/m2
18:44 47.7 °F 33.6 °F 29.9 in Calm     57.9% 0 in 0 W/m2
18:49 47.7 °F 33.4 °F 29.9 in Calm     57.8% 0 in 0 W/m2
18:54 47.8 °F 33.3 °F 29.9 in Calm     56.7% 0 in 0 W/m2
18:59 47.8 °F 33.1 °F 29.9 in Calm     56.5% 0 in 0 W/m2
19:04 48 °F 33.3 °F 29.9 in Calm     56.8% 0 in 0 W/m2
19:09 48 °F 33.4 °F 29.9 in Calm     56.9% 0 in 0 W/m2
19:14 48 °F 33.8 °F 29.9 in Calm     57.6% 0 in 0 W/m2
19:19 48 °F 33.4 °F 29.9 in Calm     57.1% 0 in 0 W/m2
19:24 47.8 °F 33.3 °F 29.9 in Calm     57% 0 in 0 W/m2
19:29 47.7 °F 33.3 °F 29.9 in Calm     57.2% 0 in 0 W/m2
19:34 47.7 °F 33.3 °F 29.9 in Calm     57.2% 0 in 0 W/m2
19:39 47.5 °F 33.3 °F 29.9 in Calm     57.8% 0 in 0 W/m2
19:44 47.5 °F 33.8 °F 29.9 in Calm     59% 0 in 0 W/m2
19:49 47.3 °F 33.6 °F 29.9 in Calm     59% 0 in 0 W/m2
19:54 47.1 °F 33.3 °F 29.9 in Calm     58.7% 0 in 0 W/m2
19:59 47.1 °F 33.3 °F 29.9 in Calm     58.8% 0 in 0 W/m2
20:04 47.1 °F 33.3 °F 29.9 in Calm     58.3% 0 in 0 W/m2
20:09 47.3 °F 33.4 °F 29.9 in Calm     58.6% 0 in 0 W/m2
20:14 47.7 °F 33.4 °F 29.9 in Calm     57.7% 0 in 0 W/m2
20:19 47.7 °F 33.8 °F 29.9 in Calm     58.4% 0 in 0 W/m2
20:24 47.7 °F 33.4 °F 29.9 in Calm     57.7% 0 in 0 W/m2
20:28 47.7 °F 33.4 °F 30 in Calm     57.6% 0 in 0 W/m2
20:34 47.5 °F 33.4 °F 29.9 in Calm     58.4% 0 in 0 W/m2
20:39 47.3 °F 33.6 °F 29.9 in Calm     59% 0 in 0 W/m2
20:44 47.3 °F 33.8 °F 30 in Calm     59.5% 0 in 0 W/m2
20:49 47.1 °F 33.8 °F 30 in Calm     59.7% 0 in 0 W/m2
20:54 47.3 °F 33.6 °F 30 in Calm     59% 0 in 0 W/m2
20:59 47.3 °F 33.8 °F 30 in Calm     59.4% 0 in 0 W/m2
21:04 47.1 °F 34.2 °F 30 in Calm     60.5% 0 in 0 W/m2
21:09 46.9 °F 33.8 °F 30 in Calm     60% 0 in 0 W/m2
21:14 46.8 °F 33.4 °F 30 in Calm     59.7% 0 in 0 W/m2
21:19 46.6 °F 33.4 °F 30 in Calm     60% 0 in 0 W/m2
21:24 46.6 °F 33.1 °F 30 in Calm     58.9% 0 in 0 W/m2
21:29 46.8 °F 33.3 °F 30 in Calm     59.4% 0 in 0 W/m2
21:34 45.7 °F 33.4 °F 30 in Calm     61.7% 0 in 0 W/m2
21:39 45.7 °F 33.4 °F 30 in Calm     61.8% 0 in 0 W/m2
21:44 45.9 °F 32.9 °F 30 in Calm     60.2% 0 in 0 W/m2
21:49 46 °F 32.7 °F 30 in Calm     59.2% 0 in 0 W/m2
21:54 46.9 °F 33.4 °F 30 in Calm     59% 0 in 0 W/m2
21:59 46.9 °F 33.1 °F 30 in Calm     58.5% 0 in 0 W/m2
22:04 47.1 °F 33.4 °F 30 in Calm     59% 0 in 0 W/m2
22:09 47.3 °F 33.6 °F 30 in Calm     59% 0 in 0 W/m2
22:14 47.8 °F 34.2 °F 30 in Calm   2.5 mph 59% 0 in 0 W/m2
22:19 47.8 °F 33.8 °F 30 in Calm     58.2% 0 in 0 W/m2
22:24 48 °F 34.2 °F 30 in Calm     58.3% 0 in 0 W/m2
22:29 48 °F 34.3 °F 30 in Calm     59% 0 in 0 W/m2
22:34 48.2 °F 34.5 °F 30 in Calm     59% 0 in 0 W/m2
22:39 48.2 °F 34.3 °F 30 in Calm     58.6% 0 in 0 W/m2
22:44 48.4 °F 34.3 °F 30 in Calm     58% 0 in 0 W/m2
22:49 48.4 °F 34.3 °F 30 in Calm     58.1% 0 in 0 W/m2
22:54 48.2 °F 34.7 °F 30 in Calm     59.6% 0 in 0 W/m2
22:59 48.4 °F 34.7 °F 30 in Calm     59% 0 in 0 W/m2
23:04 48.4 °F 34.7 °F 30 in Calm     59.2% 0 in 0 W/m2
23:09 48.4 °F 34.7 °F 30 in Calm     59% 0 in 0 W/m2
23:14 48.2 °F 34.9 °F 30 in Calm     59.9% 0 in 0 W/m2
23:19 48.2 °F 35.4 °F 30 in Calm     61% 0 in 0 W/m2
23:24 48 °F 35.2 °F 30 in Calm     61% 0 in 0 W/m2
23:29 47.8 °F 34.9 °F 30 in Calm     60.3% 0 in 0 W/m2
23:34 48 °F 34.9 °F 30 in Calm     60% 0 in 0 W/m2
23:39 48 °F 35.1 °F 30 in Calm     60.4% 0 in 0 W/m2
23:44 48 °F 35.2 °F 30 in Calm     61% 0 in 0 W/m2
23:49 47.8 °F 35.1 °F 30 in Calm     61.1% 0 in 0 W/m2
23:54 47.1 °F 34.9 °F 30 in SSW 0.5 mph 4.9 mph 62.4% 0 in 0 W/m2
23:59 46.9 °F 34.7 °F 30 in South 0.1 mph 4.9 mph 62.4% 0 in 0 W/m2
Juneau County Weather
Compliments of Weather Underground - 2 mb